createdAt,value
2019-04-22T00:02:26.479Z,3.27
2019-04-22T00:07:01.341Z,3.35
2019-04-22T00:11:04.967Z,3.38
2019-04-22T00:15:01.901Z,3.39
2019-04-22T00:19:15.347Z,3.37
2019-04-22T00:23:15.554Z,3.41
2019-04-22T00:27:24.097Z,3.45
2019-04-22T00:31:26.713Z,3.50
2019-04-22T00:35:33.162Z,3.52
2019-04-22T00:39:44.741Z,3.54
2019-04-22T00:43:42.185Z,3.58
2019-04-22T00:47:43.640Z,3.60
2019-04-22T00:51:59.806Z,3.61
2019-04-22T01:00:11.979Z,3.69
2019-04-22T01:04:20.358Z,3.70
2019-04-22T01:08:23.439Z,3.71
2019-04-22T01:12:28.660Z,3.67
2019-04-22T01:16:29.585Z,3.69
2019-04-22T01:24:32.666Z,3.82
2019-04-22T01:28:34.265Z,3.85
2019-04-22T01:32:30.660Z,3.91
2019-04-22T01:36:51.572Z,3.93
2019-04-22T01:41:04.563Z,3.94
2019-04-22T01:44:59.577Z,4.01
2019-04-22T01:49:10.354Z,4.04
2019-04-22T01:53:28.901Z,4.05
2019-04-22T01:57:14.178Z,4.05
2019-04-22T02:01:22.390Z,4.04
2019-04-22T02:09:31.777Z,3.98
2019-04-22T02:13:37.913Z,3.96
2019-04-22T02:17:42.509Z,3.98
2019-04-22T02:21:35.709Z,3.95
2019-04-22T02:25:51.518Z,3.94
2019-04-22T02:29:47.595Z,3.95
2019-04-22T02:34:13.599Z,3.95
2019-04-22T02:38:10.334Z,3.98
2019-04-22T02:46:23.356Z,4.10
2019-04-22T02:54:38.376Z,4.10
2019-04-22T02:58:32.716Z,4.12
2019-04-22T03:02:28.514Z,4.14
2019-04-22T03:10:53.491Z,4.19
2019-04-22T03:14:37.132Z,4.32
2019-04-22T03:18:52.438Z,4.42
2019-04-22T03:22:52.056Z,4.50
2019-04-22T03:26:48.908Z,4.60
2019-04-22T03:32:17.394Z,4.75
2019-04-22T03:35:45.175Z,4.85
2019-04-22T03:40:00.024Z,4.90
2019-04-22T03:44:08.275Z,4.96
2019-04-22T03:52:05.535Z,5.12
2019-04-22T03:56:13.773Z,5.15
2019-04-22T04:00:17.804Z,5.19
2019-04-22T04:04:15.443Z,5.25
2019-04-22T04:20:32.521Z,5.55
2019-04-22T04:28:50.961Z,5.70
2019-04-22T04:36:54.951Z,5.86
2019-04-22T04:40:51.227Z,5.94
2019-04-22T04:45:10.956Z,6.05
2019-04-22T04:49:16.193Z,6.17
2019-04-22T04:57:10.523Z,6.43
2019-04-22T05:01:14.862Z,6.57
2019-04-22T05:17:43.360Z,7.09
2019-04-22T05:21:48.582Z,7.24
2019-04-22T05:25:40.879Z,7.36
2019-04-22T05:30:08.752Z,7.47
2019-04-22T05:33:56.361Z,7.64
2019-04-22T05:38:03.095Z,7.74
2019-04-22T05:42:03.404Z,7.87
2019-04-22T05:46:02.928Z,8.02
2019-04-22T05:50:10.896Z,8.23
2019-04-22T05:54:14.597Z,8.38
2019-04-22T05:58:18.810Z,8.59
2019-04-22T06:02:37.802Z,8.92
2019-04-22T06:06:27.444Z,9.16
2019-04-22T06:14:31.078Z,9.62
2019-04-22T06:18:44.858Z,9.67
2019-04-22T06:27:01.651Z,9.58
2019-04-22T06:30:57.097Z,9.68
2019-04-22T06:34:59.512Z,9.92
2019-04-22T06:39:08.497Z,10.16
2019-04-22T06:43:10.403Z,10.63
2019-04-22T06:47:21.029Z,11.04
2019-04-22T06:51:24.448Z,11.01
2019-04-22T06:55:22.974Z,11.40
2019-04-22T06:59:30.140Z,11.73
2019-04-22T07:03:41.732Z,11.58
2019-04-22T07:07:33.374Z,11.36
2019-04-22T07:11:36.727Z,11.17
2019-04-22T07:19:45.325Z,11.83
2019-04-22T07:24:02.481Z,12.63
2019-04-22T07:27:52.612Z,13.34
2019-04-22T07:32:05.015Z,13.64
2019-04-22T07:36:22.562Z,13.88
2019-04-22T07:40:02.454Z,13.94
2019-04-22T07:52:18.757Z,13.96
2019-04-22T07:56:19.019Z,14.37
2019-04-22T08:00:29.038Z,14.49
2019-04-22T08:04:50.088Z,14.37
2019-04-22T08:08:28.766Z,14.23
2019-04-22T08:12:39.179Z,14.15
2019-04-22T08:16:43.864Z,13.75
2019-04-22T08:20:50.295Z,13.68
2019-04-22T08:24:56.362Z,13.76
2019-04-22T08:28:59.358Z,14.16
2019-04-22T08:33:01.032Z,14.22
2019-04-22T08:37:35.665Z,14.23
2019-04-22T08:45:32.077Z,15.16
2019-04-22T08:49:44.294Z,15.33
2019-04-22T08:53:41.481Z,15.67
2019-04-22T08:58:06.440Z,15.92
2019-04-22T09:01:45.332Z,15.82
2019-04-22T09:06:06.412Z,15.59
2019-04-22T09:10:02.177Z,15.67
2019-04-22T09:14:24.251Z,15.54
2019-04-22T09:18:14.240Z,15.37
2019-04-22T09:22:11.263Z,15.26
2019-04-22T09:26:15.550Z,15.53
2019-04-22T09:30:30.629Z,15.96
2019-04-22T09:34:28.007Z,16.10
2019-04-22T09:38:45.112Z,16.36
2019-04-22T09:42:32.277Z,16.49
2019-04-22T09:46:39.266Z,16.58
2019-04-22T09:50:44.542Z,16.46
2019-04-22T09:54:57.857Z,16.69
2019-04-22T09:58:50.511Z,16.72
2019-04-22T10:03:00.515Z,16.67
2019-04-22T10:06:59.619Z,16.99
2019-04-22T10:11:04.603Z,17.03
2019-04-22T10:15:06.467Z,16.88
2019-04-22T10:19:20.217Z,16.57
2019-04-22T10:23:20.165Z,16.71
2019-04-22T10:27:20.880Z,16.84
2019-04-22T10:31:31.126Z,16.68
2019-04-22T10:35:17.290Z,16.94
2019-04-22T10:39:16.231Z,17.01
2019-04-22T10:43:19.233Z,16.95
2019-04-22T10:47:22.243Z,17.36
2019-04-22T10:51:26.480Z,16.94
2019-04-22T10:55:31.795Z,17.07
2019-04-22T10:59:34.430Z,17.49
2019-04-22T11:03:39.387Z,17.41
2019-04-22T11:07:49.497Z,17.17
2019-04-22T11:11:54.522Z,17.34
2019-04-22T11:15:55.028Z,17.38
2019-04-22T11:19:59.741Z,17.19
2019-04-22T11:24:02.980Z,17.24
2019-04-22T11:28:07.581Z,17.49
2019-04-22T11:32:10.583Z,17.61
2019-04-22T11:36:13.570Z,17.66
2019-04-22T11:40:24.362Z,17.37
2019-04-22T11:44:21.357Z,17.58
2019-04-22T11:48:23.824Z,16.96
2019-04-22T11:52:28.813Z,17.20
2019-04-22T11:56:31.782Z,17.32
2019-04-22T12:00:37.021Z,17.64
2019-04-22T12:04:40.174Z,17.57
2019-04-22T12:08:43.698Z,18.04
2019-04-22T12:12:48.216Z,17.78
2019-04-22T12:16:50.151Z,17.54
2019-04-22T12:20:53.110Z,17.53
2019-04-22T12:24:56.562Z,17.26
2019-04-22T12:28:59.426Z,17.90
2019-04-22T12:33:02.325Z,17.89
2019-04-22T12:37:04.907Z,17.59
2019-04-22T12:41:10.366Z,18.03
2019-04-22T12:45:12.234Z,17.70
2019-04-22T12:49:16.016Z,17.95
2019-04-22T12:53:23.520Z,18.22
2019-04-22T12:57:25.223Z,18.37
2019-04-22T13:01:28.978Z,18.60
2019-04-22T13:05:33.287Z,18.84
2019-04-22T13:09:37.299Z,18.20
2019-04-22T13:13:40.773Z,17.73
2019-04-22T13:17:44.370Z,17.74
2019-04-22T13:21:46.867Z,17.92
2019-04-22T13:25:50.201Z,18.41
2019-04-22T13:29:53.089Z,19.00
2019-04-22T13:33:59.644Z,18.79
2019-04-22T13:38:01.252Z,19.01
2019-04-22T13:46:08.107Z,18.89
2019-04-22T13:50:44.257Z,18.91
2019-04-22T13:53:53.504Z,19.22
2019-04-22T13:58:35.425Z,18.69
2019-04-22T14:02:40.190Z,18.09
2019-04-22T14:06:42.872Z,18.16
2019-04-22T14:10:45.330Z,18.67
2019-04-22T14:14:50.438Z,18.46
2019-04-22T14:18:52.001Z,18.73
2019-04-22T14:22:54.797Z,18.79
2019-04-22T14:27:13.756Z,18.86
2019-04-22T14:31:02.280Z,18.90
2019-04-22T14:35:06.976Z,18.94
2019-04-22T14:39:12.290Z,18.59
2019-04-22T14:43:40.405Z,19.20
2019-04-22T14:47:49.248Z,18.48
2019-04-22T14:51:47.045Z,17.87
2019-04-22T14:55:30.636Z,17.84
2019-04-22T14:59:32.549Z,17.53
2019-04-22T15:03:39.923Z,17.69
2019-04-22T15:07:41.243Z,17.92
2019-04-22T15:11:56.932Z,18.04
2019-04-22T15:16:25.854Z,18.43
2019-04-22T15:20:52.354Z,18.55
2019-04-22T15:24:54.463Z,17.92
2019-04-22T15:28:57.720Z,17.73
2019-04-22T15:33:01.222Z,18.17
2019-04-22T15:37:04.294Z,18.42
2019-04-22T15:41:07.777Z,18.64
2019-04-22T15:45:12.594Z,18.05
2019-04-22T15:49:16.101Z,17.54
2019-04-22T15:53:20.077Z,16.85
2019-04-22T15:57:22.642Z,16.68
2019-04-22T16:01:29.840Z,16.56
2019-04-22T16:05:30.279Z,16.41
2019-04-22T16:09:34.971Z,16.07
2019-04-22T16:13:40.132Z,15.95
2019-04-22T16:17:42.583Z,15.74
2019-04-22T16:21:51.765Z,15.58
2019-04-22T16:25:59.073Z,15.46
2019-04-22T16:30:01.513Z,15.31
2019-04-22T16:34:04.572Z,15.17
2019-04-22T16:38:07.029Z,15.08
2019-04-22T16:42:11.889Z,14.96
2019-04-22T16:46:13.851Z,14.85
2019-04-22T16:50:18.975Z,14.71
2019-04-22T16:54:22.172Z,14.61
2019-04-22T16:58:25.569Z,14.52
2019-04-22T17:02:56.121Z,14.41
2019-04-22T17:07:01.825Z,14.28
2019-04-22T17:11:04.556Z,14.13
2019-04-22T17:15:12.198Z,14.07
2019-04-22T17:19:13.370Z,13.90
2019-04-22T17:23:16.124Z,13.81
2019-04-22T17:27:20.184Z,13.62
2019-04-22T17:31:22.873Z,13.51
2019-04-22T17:35:26.194Z,13.32
2019-04-22T17:39:43.539Z,13.24
2019-04-22T17:43:59.113Z,13.12
2019-04-22T17:48:40.259Z,12.89
2019-04-22T17:52:42.593Z,12.76
2019-04-22T17:56:48.626Z,12.52
2019-04-22T18:00:47.191Z,12.44
2019-04-22T18:04:40.209Z,12.44
2019-04-22T18:08:54.924Z,12.18
2019-04-22T18:13:08.783Z,12.02
2019-04-22T18:17:11.562Z,11.89
2019-04-22T18:21:11.949Z,11.75
2019-04-22T18:25:07.744Z,11.43
2019-04-22T18:29:21.934Z,11.16
2019-04-22T18:33:27.296Z,10.88
2019-04-22T18:37:21.059Z,10.57
2019-04-22T18:41:28.906Z,10.36
2019-04-22T18:45:48.801Z,10.19
2019-04-22T18:49:39.127Z,9.83
2019-04-22T18:54:13.445Z,9.56
2019-04-22T18:58:04.208Z,9.43
2019-04-22T19:02:01.440Z,9.28
2019-04-22T19:06:29.467Z,9.23
2019-04-22T19:10:39.469Z,9.14
2019-04-22T19:14:35.335Z,9.02
2019-04-22T19:22:45.783Z,8.68
2019-04-22T19:26:50.065Z,8.53
2019-04-22T19:30:50.775Z,8.49
2019-04-22T19:34:47.876Z,8.37
2019-04-22T19:38:52.565Z,8.29
2019-04-22T19:43:04.001Z,8.18
2019-04-22T19:47:21.098Z,8.10
2019-04-22T19:51:12.826Z,8.10
2019-04-22T19:55:14.107Z,8.14
2019-04-22T19:59:11.776Z,8.05
2019-04-22T20:03:49.712Z,7.95
2019-04-22T20:07:41.817Z,7.84
2019-04-22T20:11:57.550Z,7.75
2019-04-22T20:15:50.591Z,7.55
2019-04-22T20:20:09.520Z,7.46
2019-04-22T20:23:57.382Z,7.34
2019-04-22T20:28:15.091Z,7.32
2019-04-22T20:32:20.347Z,7.20
2019-04-22T20:36:42.584Z,7.09
2019-04-22T20:40:29.807Z,6.94
2019-04-22T20:44:37.293Z,6.86
2019-04-22T20:48:41.176Z,6.76
2019-04-22T20:52:48.710Z,6.59
2019-04-22T20:56:45.120Z,6.51
2019-04-22T21:00:40.297Z,6.49
2019-04-22T21:04:43.146Z,6.37
2019-04-22T21:09:02.208Z,6.34
2019-04-22T21:13:01.768Z,6.39
2019-04-22T21:17:08.059Z,6.41
2019-04-22T21:21:13.976Z,6.35
2019-04-22T21:25:11.325Z,6.31
2019-04-22T21:29:17.312Z,6.24
2019-04-22T21:33:18.438Z,6.24
2019-04-22T21:37:33.003Z,6.32
2019-04-22T21:41:30.391Z,6.37
2019-04-22T21:45:28.123Z,6.43
2019-04-22T21:49:45.981Z,6.61
2019-04-22T21:54:00.334Z,6.69
2019-04-22T21:58:05.185Z,6.75
2019-04-22T22:02:09.997Z,6.57
2019-04-22T22:06:04.871Z,6.51
2019-04-22T22:10:09.974Z,6.47
2019-04-22T22:14:16.929Z,6.30
2019-04-22T22:18:16.562Z,6.28
2019-04-22T22:22:42.097Z,6.14
2019-04-22T22:26:38.808Z,6.05
2019-04-22T22:34:43.152Z,5.63
2019-04-22T22:38:44.628Z,5.48
2019-04-22T22:42:36.956Z,5.33
2019-04-22T22:46:43.732Z,5.17
2019-04-22T22:50:58.522Z,5.07
2019-04-22T22:55:06.951Z,4.85
2019-04-22T22:59:12.728Z,4.84
2019-04-22T23:07:22.578Z,4.78
2019-04-22T23:11:40.382Z,4.81
2019-04-22T23:15:25.249Z,4.82
2019-04-22T23:19:11.124Z,4.88
2019-04-22T23:23:36.065Z,4.87
2019-04-22T23:27:51.464Z,4.83
2019-04-22T23:31:50.361Z,4.76
2019-04-22T23:36:13.669Z,4.63
2019-04-22T23:40:32.558Z,4.53
2019-04-22T23:44:32.535Z,4.61
2019-04-22T23:48:27.976Z,4.51
2019-04-22T23:52:50.849Z,4.46
2019-04-22T23:56:47.010Z,4.38
